createdAt,value
2018-06-15T00:04:17.237Z,7.67
2018-06-15T00:09:10.215Z,7.33
2018-06-15T00:14:03.175Z,6.73
2018-06-15T00:18:56.065Z,6.43
2018-06-15T00:23:48.968Z,6.20
2018-06-15T00:28:41.851Z,5.93
2018-06-15T00:33:34.726Z,5.60
2018-06-15T00:38:27.974Z,6.30
2018-06-15T00:43:20.880Z,6.27
2018-06-15T00:48:13.777Z,8.40
2018-06-15T00:53:06.630Z,8.97
2018-06-15T00:57:59.411Z,9.17
2018-06-15T01:02:52.288Z,9.50
2018-06-15T01:07:45.126Z,9.90
2018-06-15T01:12:38.098Z,10.17
2018-06-15T01:17:30.943Z,11.53
2018-06-15T01:22:23.839Z,11.23
2018-06-15T01:27:16.793Z,11.63
2018-06-15T01:32:09.671Z,11.50
2018-06-15T01:37:02.635Z,12.70
2018-06-15T01:41:55.589Z,11.97
2018-06-15T01:46:48.420Z,12.73
2018-06-15T01:51:41.293Z,12.60
2018-06-15T01:56:34.202Z,12.47
2018-06-15T02:01:27.275Z,13.03
2018-06-15T02:06:20.063Z,12.83
2018-06-15T02:11:12.990Z,12.37
2018-06-15T02:16:05.943Z,11.70
2018-06-15T02:20:58.853Z,13.20
2018-06-15T02:25:51.852Z,11.83
2018-06-15T02:30:44.745Z,13.10
2018-06-15T02:35:37.754Z,12.67
2018-06-15T02:40:30.659Z,13.53
2018-06-15T02:45:23.674Z,14.53
2018-06-15T02:50:16.632Z,14.70
2018-06-15T02:55:09.585Z,14.10
2018-06-15T03:00:02.599Z,14.03
2018-06-15T03:04:55.466Z,14.10
2018-06-15T03:09:48.377Z,14.23
2018-06-15T03:14:41.269Z,14.20
2018-06-15T03:19:34.212Z,13.87
2018-06-15T03:24:27.118Z,14.20
2018-06-15T03:29:19.982Z,16.50
2018-06-15T03:34:12.861Z,14.60
2018-06-15T03:39:09.017Z,14.73
2018-06-15T03:44:01.898Z,14.53
2018-06-15T03:48:55.206Z,15.90
2018-06-15T03:53:48.138Z,15.57
2018-06-15T03:58:41.134Z,15.97
2018-06-15T04:03:34.119Z,15.20
2018-06-15T04:08:27.009Z,16.13
2018-06-15T04:13:20.316Z,15.50
2018-06-15T04:18:13.176Z,15.80
2018-06-15T04:23:06.369Z,16.53
2018-06-15T04:27:59.243Z,14.80
2018-06-15T04:32:52.202Z,15.73
2018-06-15T04:37:45.432Z,15.80
2018-06-15T04:42:38.265Z,17.23
2018-06-15T04:47:31.064Z,16.13
2018-06-15T04:52:24.070Z,15.80
2018-06-15T04:57:16.963Z,15.93
2018-06-15T05:02:09.836Z,15.67
2018-06-15T05:07:02.741Z,15.90
2018-06-15T05:11:55.724Z,16.57
2018-06-15T05:16:48.668Z,15.17
2018-06-15T05:21:41.553Z,15.73
2018-06-15T05:26:34.526Z,17.33
2018-06-15T05:31:27.468Z,14.97
2018-06-15T05:36:20.334Z,15.83
2018-06-15T05:41:13.215Z,16.30
2018-06-15T05:46:06.489Z,17.03
2018-06-15T05:50:59.399Z,15.40
2018-06-15T05:55:52.351Z,15.73
2018-06-15T06:00:45.300Z,16.13
2018-06-15T06:05:38.327Z,15.13
2018-06-15T06:10:31.233Z,15.47
2018-06-15T06:15:24.101Z,16.03
2018-06-15T06:20:17.077Z,15.70
2018-06-15T06:25:10.026Z,15.43
2018-06-15T06:30:02.986Z,17.13
2018-06-15T06:34:55.871Z,14.67
2018-06-15T06:39:48.806Z,14.73
2018-06-15T06:44:41.729Z,16.67
2018-06-15T06:49:34.622Z,14.83
2018-06-15T06:54:27.652Z,15.57
2018-06-15T06:59:20.554Z,18.43
2018-06-15T07:04:13.485Z,14.43
2018-06-15T07:09:07.173Z,15.37
2018-06-15T07:14:00.237Z,14.87
2018-06-15T07:18:53.722Z,14.37
2018-06-15T07:23:46.639Z,14.80
2018-06-15T07:28:39.561Z,15.13
2018-06-15T07:33:32.532Z,14.70
2018-06-15T07:38:25.443Z,15.13
2018-06-15T07:43:18.410Z,15.73
2018-06-15T07:48:11.561Z,16.00
2018-06-15T07:53:04.499Z,14.30
2018-06-15T07:57:57.443Z,15.07
2018-06-15T08:02:51.105Z,16.23
2018-06-15T08:07:44.016Z,12.87
2018-06-15T08:12:37.042Z,10.53
2018-06-15T08:17:29.914Z,11.27
2018-06-15T08:22:22.865Z,12.90
2018-06-15T08:27:15.825Z,11.23
2018-06-15T08:32:08.696Z,11.57
2018-06-15T08:37:01.644Z,11.77
2018-06-15T08:41:54.667Z,10.03
2018-06-15T08:46:47.723Z,9.77
2018-06-15T08:51:40.542Z,10.63
2018-06-15T08:56:33.448Z,10.30
2018-06-15T09:01:26.406Z,10.17
2018-06-15T09:06:19.474Z,10.37
2018-06-15T09:11:12.487Z,10.03
2018-06-15T09:16:05.446Z,9.93
2018-06-15T09:20:58.358Z,7.10
2018-06-15T09:25:52.460Z,5.03
2018-06-15T09:30:45.354Z,7.00
2018-06-15T09:35:38.211Z,5.97
2018-06-15T09:40:31.065Z,5.80
2018-06-15T09:45:23.975Z,3.10
2018-06-15T09:50:16.900Z,4.73
2018-06-15T09:55:09.784Z,3.17
2018-06-15T10:00:02.765Z,3.40
2018-06-15T10:04:55.633Z,3.10
2018-06-15T10:09:48.746Z,2.60
2018-06-15T10:14:41.685Z,2.60
2018-06-15T10:19:34.590Z,3.53
2018-06-15T10:24:27.429Z,2.80
2018-06-15T10:29:20.253Z,3.67
2018-06-15T10:34:13.221Z,2.47
2018-06-15T10:39:09.115Z,2.80
2018-06-15T10:44:02.041Z,2.70
2018-06-15T10:48:54.986Z,5.23
2018-06-15T10:53:47.862Z,4.20
2018-06-15T10:58:40.681Z,5.27
2018-06-15T11:03:33.582Z,5.10
2018-06-15T11:08:26.625Z,4.73
2018-06-15T11:13:19.508Z,5.27
2018-06-15T11:18:12.405Z,6.07
2018-06-15T11:23:05.277Z,5.10
2018-06-15T11:27:58.155Z,6.53
2018-06-15T11:32:51.056Z,5.60
2018-06-15T11:37:43.853Z,5.63
2018-06-15T11:42:36.712Z,5.43
2018-06-15T11:47:29.651Z,5.23
2018-06-15T11:52:22.605Z,5.30
2018-06-15T11:57:15.518Z,5.20
2018-06-15T12:02:08.378Z,6.03
2018-06-15T12:07:01.392Z,5.77
2018-06-15T12:11:54.410Z,5.23
2018-06-15T12:16:47.484Z,6.70
2018-06-15T12:21:40.440Z,4.60
2018-06-15T12:26:33.321Z,4.40
2018-06-15T12:31:26.298Z,5.03
2018-06-15T12:36:19.257Z,4.50
2018-06-15T12:41:12.557Z,4.20
2018-06-15T12:46:05.553Z,4.43
2018-06-15T12:50:58.371Z,4.17
2018-06-15T12:55:51.278Z,3.80
2018-06-15T13:00:44.135Z,4.50
2018-06-15T13:05:37.001Z,4.63
2018-06-15T13:10:29.875Z,3.80
2018-06-15T13:15:22.758Z,3.60
2018-06-15T13:20:15.576Z,4.40
2018-06-15T13:25:08.470Z,3.70
2018-06-15T13:30:01.359Z,4.37
2018-06-15T13:34:54.270Z,4.30
2018-06-15T13:39:47.114Z,4.40
2018-06-15T13:44:40.014Z,3.80
2018-06-15T13:49:33.048Z,4.13
2018-06-15T13:59:50.764Z,4.70
2018-06-15T14:04:43.725Z,3.67
2018-06-15T14:09:36.677Z,3.70
2018-06-15T14:14:29.771Z,4.10
2018-06-15T14:19:22.581Z,4.00
2018-06-15T14:24:15.490Z,4.27
2018-06-15T14:29:08.441Z,4.10
2018-06-15T14:34:01.226Z,4.00
2018-06-15T14:38:54.199Z,4.17
2018-06-15T14:43:47.097Z,4.13
2018-06-15T14:48:39.975Z,4.17
2018-06-15T14:53:32.846Z,3.93
2018-06-15T14:58:25.741Z,4.13
2018-06-15T15:03:18.647Z,4.10
2018-06-15T15:08:11.545Z,3.90
2018-06-15T15:13:04.516Z,4.40
2018-06-15T15:17:57.406Z,4.23
2018-06-15T15:22:50.350Z,3.80
2018-06-15T15:27:43.314Z,3.77
2018-06-15T15:32:36.273Z,4.10
2018-06-15T15:37:29.165Z,4.47
2018-06-15T15:42:21.995Z,4.70
2018-06-15T15:47:14.851Z,4.80
2018-06-15T15:52:07.757Z,4.57
2018-06-15T15:57:00.629Z,4.03
2018-06-15T16:01:53.476Z,4.10
2018-06-15T16:06:46.370Z,3.70
2018-06-15T16:11:39.752Z,4.13
2018-06-15T16:16:32.597Z,3.70
2018-06-15T16:21:25.484Z,3.90
2018-06-15T16:26:18.440Z,3.63
2018-06-15T16:31:11.366Z,3.80
2018-06-15T16:36:04.441Z,3.83
2018-06-15T16:40:57.302Z,4.20
2018-06-15T16:45:50.376Z,4.13
2018-06-15T16:50:43.235Z,4.50
2018-06-15T16:55:36.105Z,3.90
2018-06-15T17:00:28.944Z,3.93
2018-06-15T17:05:21.768Z,3.97
2018-06-15T17:10:14.601Z,4.50
2018-06-15T17:15:07.508Z,4.37
2018-06-15T17:20:00.480Z,4.07
2018-06-15T17:24:53.346Z,4.50
2018-06-15T17:29:46.384Z,4.43
2018-06-15T17:34:39.287Z,4.20
2018-06-15T17:39:32.120Z,4.37
2018-06-15T17:44:25.093Z,4.67
2018-06-15T17:49:17.970Z,4.40
2018-06-15T17:54:10.821Z,4.47
2018-06-15T17:59:03.848Z,4.63
2018-06-15T18:03:56.745Z,4.30
2018-06-15T18:08:49.876Z,4.10
2018-06-15T18:13:42.817Z,4.53
2018-06-15T18:18:35.869Z,4.43
2018-06-15T18:23:28.721Z,4.67
2018-06-15T18:28:21.640Z,4.50
2018-06-15T18:33:14.478Z,4.70
2018-06-15T18:38:07.495Z,4.53
2018-06-15T18:43:00.312Z,4.70
2018-06-15T18:47:53.251Z,4.50
2018-06-15T18:52:46.205Z,4.57
2018-06-15T18:57:39.229Z,4.67
2018-06-15T19:02:32.152Z,4.80
2018-06-15T19:07:25.037Z,4.50
2018-06-15T19:12:17.961Z,4.87
2018-06-15T19:17:11.027Z,5.10
2018-06-15T19:22:03.869Z,4.67
2018-06-15T19:26:56.701Z,4.67
2018-06-15T19:31:49.692Z,4.90
2018-06-15T19:36:42.607Z,5.00
2018-06-15T19:41:35.910Z,5.07
2018-06-15T19:46:28.838Z,5.50
2018-06-15T19:51:21.778Z,5.70
2018-06-15T19:56:14.678Z,5.63
2018-06-15T20:01:07.572Z,5.30
2018-06-15T20:06:00.715Z,5.50
2018-06-15T20:10:53.577Z,5.07
2018-06-15T20:15:46.497Z,5.53
2018-06-15T20:20:39.418Z,6.60
2018-06-15T20:25:32.241Z,5.73
2018-06-15T20:30:25.152Z,5.87
2018-06-15T20:35:17.943Z,5.50
2018-06-15T20:40:10.855Z,5.50
2018-06-15T20:45:04.017Z,5.73
2018-06-15T20:49:56.872Z,6.47
2018-06-15T20:54:49.812Z,5.60
2018-06-15T20:59:42.637Z,5.40
2018-06-15T21:04:35.568Z,5.33
2018-06-15T21:09:28.448Z,5.37
2018-06-15T21:14:21.325Z,5.67
2018-06-15T21:19:14.248Z,5.77
2018-06-15T21:24:07.070Z,5.87
2018-06-15T21:28:59.903Z,6.20
2018-06-15T21:33:52.796Z,7.77
2018-06-15T21:38:45.753Z,6.43
2018-06-15T21:43:38.640Z,5.97
2018-06-15T21:48:31.553Z,6.47
2018-06-15T21:53:24.458Z,6.50
2018-06-15T21:58:18.362Z,6.33
2018-06-15T22:03:11.165Z,6.07
2018-06-15T22:08:04.225Z,6.60
2018-06-15T22:12:57.224Z,5.90
2018-06-15T22:17:50.108Z,6.47
2018-06-15T22:22:42.910Z,6.17
2018-06-15T22:27:35.899Z,6.30
2018-06-15T22:32:28.791Z,6.97
2018-06-15T22:37:21.659Z,6.33
2018-06-15T22:42:14.575Z,6.13
2018-06-15T22:47:07.431Z,7.37
2018-06-15T22:52:00.357Z,7.40
2018-06-15T22:56:53.218Z,7.57
2018-06-15T23:01:46.111Z,8.17
2018-06-15T23:06:39.191Z,8.57
2018-06-15T23:11:32.134Z,8.70
2018-06-15T23:16:25.045Z,9.20
2018-06-15T23:21:17.953Z,9.67
2018-06-15T23:26:10.881Z,9.60
2018-06-15T23:31:03.802Z,9.83
2018-06-15T23:35:56.621Z,9.60
2018-06-15T23:40:49.526Z,10.33
2018-06-15T23:45:42.394Z,9.60
2018-06-15T23:50:35.204Z,9.67
2018-06-15T23:55:28.009Z,9.47
